sensor_id;sensor_type;location;lat;lon;timestamp;temperature;humidity
24017;DHT22;12222;50.090;19.702;2022-09-24T00:00:30;4.50;99.90
24017;DHT22;12222;50.090;19.702;2022-09-24T00:05:39;4.50;99.90
24017;DHT22;12222;50.090;19.702;2022-09-24T00:10:43;4.50;99.90
24017;DHT22;12222;50.090;19.702;2022-09-24T00:15:48;4.50;99.90
24017;DHT22;12222;50.090;19.702;2022-09-24T00:20:50;4.30;99.90
24017;DHT22;12222;50.090;19.702;2022-09-24T00:25:52;4.30;99.90
24017;DHT22;12222;50.090;19.702;2022-09-24T00:31:13;4.20;99.90
24017;DHT22;12222;50.090;19.702;2022-09-24T00:36:15;4.10;99.90
24017;DHT22;12222;50.090;19.702;2022-09-24T00:41:18;4.10;99.90
24017;DHT22;12222;50.090;19.702;2022-09-24T00:46:37;4.20;99.90
24017;DHT22;12222;50.090;19.702;2022-09-24T00:51:45;4.30;99.90
24017;DHT22;12222;50.090;19.702;2022-09-24T00:56:50;4.20;99.90
24017;DHT22;12222;50.090;19.702;2022-09-24T01:01:53;4.30;99.90
24017;DHT22;12222;50.090;19.702;2022-09-24T01:06:58;4.40;99.90
24017;DHT22;12222;50.090;19.702;2022-09-24T01:12:29;4.20;99.90
24017;DHT22;12222;50.090;19.702;2022-09-24T01:18:03;4.20;99.90
24017;DHT22;12222;50.090;19.702;2022-09-24T01:28:53;4.10;99.90
24017;DHT22;12222;50.090;19.702;2022-09-24T01:34:02;4.00;99.90
24017;DHT22;12222;50.090;19.702;2022-09-24T01:39:07;4.00;99.90
24017;DHT22;12222;50.090;19.702;2022-09-24T01:44:10;3.90;99.90
24017;DHT22;12222;50.090;19.702;2022-09-24T01:49:12;3.90;99.90
24017;DHT22;12222;50.090;19.702;2022-09-24T01:54:19;3.90;99.90
24017;DHT22;12222;50.090;19.702;2022-09-24T01:59:31;3.90;99.90
24017;DHT22;12222;50.090;19.702;2022-09-24T02:04:43;3.80;99.90
24017;DHT22;12222;50.090;19.702;2022-09-24T02:09:46;3.70;99.90
24017;DHT22;12222;50.090;19.702;2022-09-24T02:14:56;3.70;99.90
24017;DHT22;12222;50.090;19.702;2022-09-24T02:20:02;3.50;99.90
24017;DHT22;12222;50.090;19.702;2022-09-24T02:25:08;3.50;99.90
24017;DHT22;12222;50.090;19.702;2022-09-24T02:30:11;3.60;99.90
24017;DHT22;12222;50.090;19.702;2022-09-24T02:35:13;3.50;99.90
24017;DHT22;12222;50.090;19.702;2022-09-24T02:40:15;3.30;99.90
24017;DHT22;12222;50.090;19.702;2022-09-24T02:45:17;3.40;99.90
24017;DHT22;12222;50.090;19.702;2022-09-24T02:50:19;3.30;99.90
24017;DHT22;12222;50.090;19.702;2022-09-24T02:55:21;3.30;99.90
24017;DHT22;12222;50.090;19.702;2022-09-24T03:00:23;3.30;99.90
24017;DHT22;12222;50.090;19.702;2022-09-24T03:05:25;3.30;99.90
24017;DHT22;12222;50.090;19.702;2022-09-24T03:10:26;3.30;99.90
24017;DHT22;12222;50.090;19.702;2022-09-24T03:15:28;3.30;99.90
24017;DHT22;12222;50.090;19.702;2022-09-24T03:20:30;3.20;99.90
24017;DHT22;12222;50.090;19.702;2022-09-24T03:25:33;3.30;99.90
24017;DHT22;12222;50.090;19.702;2022-09-24T03:30:34;3.30;99.90
24017;DHT22;12222;50.090;19.702;2022-09-24T03:36:00;3.20;99.90
24017;DHT22;12222;50.090;19.702;2022-09-24T03:41:03;3.20;99.90
24017;DHT22;12222;50.090;19.702;2022-09-24T03:46:06;3.30;99.90
24017;DHT22;12222;50.090;19.702;2022-09-24T03:51:12;3.30;99.90
24017;DHT22;12222;50.090;19.702;2022-09-24T03:56:14;3.30;99.90
24017;DHT22;12222;50.090;19.702;2022-09-24T04:01:16;3.30;99.90
24017;DHT22;12222;50.090;19.702;2022-09-24T04:06:22;3.40;99.90
24017;DHT22;12222;50.090;19.702;2022-09-24T04:11:26;3.50;99.90
24017;DHT22;12222;50.090;19.702;2022-09-24T04:16:28;3.60;99.90
24017;DHT22;12222;50.090;19.702;2022-09-24T04:21:30;3.50;99.90
24017;DHT22;12222;50.090;19.702;2022-09-24T04:26:32;3.60;99.90
24017;DHT22;12222;50.090;19.702;2022-09-24T04:31:34;3.70;99.90
24017;DHT22;12222;50.090;19.702;2022-09-24T04:36:36;3.70;99.90
24017;DHT22;12222;50.090;19.702;2022-09-24T04:41:38;3.70;99.90
24017;DHT22;12222;50.090;19.702;2022-09-24T04:46:40;3.60;99.90
24017;DHT22;12222;50.090;19.702;2022-09-24T04:51:43;3.60;99.90
24017;DHT22;12222;50.090;19.702;2022-09-24T04:56:45;3.70;99.90
24017;DHT22;12222;50.090;19.702;2022-09-24T05:01:47;3.70;99.90
24017;DHT22;12222;50.090;19.702;2022-09-24T05:06:49;3.90;99.90
24017;DHT22;12222;50.090;19.702;2022-09-24T05:11:51;4.00;99.90
24017;DHT22;12222;50.090;19.702;2022-09-24T05:16:53;4.00;99.90
24017;DHT22;12222;50.090;19.702;2022-09-24T05:21:55;4.20;99.90
24017;DHT22;12222;50.090;19.702;2022-09-24T05:26:57;4.40;99.90
24017;DHT22;12222;50.090;19.702;2022-09-24T05:32:13;4.50;99.90
24017;DHT22;12222;50.090;19.702;2022-09-24T05:37:16;4.50;99.90
24017;DHT22;12222;50.090;19.702;2022-09-24T05:42:18;4.80;99.90
24017;DHT22;12222;50.090;19.702;2022-09-24T05:47:20;5.40;99.90
24017;DHT22;12222;50.090;19.702;2022-09-24T05:52:23;5.70;99.90
24017;DHT22;12222;50.090;19.702;2022-09-24T05:57:25;5.70;99.90
24017;DHT22;12222;50.090;19.702;2022-09-24T06:02:27;6.00;99.90
24017;DHT22;12222;50.090;19.702;2022-09-24T06:07:29;6.30;99.90
24017;DHT22;12222;50.090;19.702;2022-09-24T06:12:32;6.50;99.90
24017;DHT22;12222;50.090;19.702;2022-09-24T06:17:35;6.70;99.90
24017;DHT22;12222;50.090;19.702;2022-09-24T06:22:37;7.00;99.90
24017;DHT22;12222;50.090;19.702;2022-09-24T06:27:39;7.20;99.90
24017;DHT22;12222;50.090;19.702;2022-09-24T06:32:42;7.30;99.90
24017;DHT22;12222;50.090;19.702;2022-09-24T06:37:44;7.50;99.90
24017;DHT22;12222;50.090;19.702;2022-09-24T06:42:50;7.80;99.90
24017;DHT22;12222;50.090;19.702;2022-09-24T06:47:57;8.20;99.90
24017;DHT22;12222;50.090;19.702;2022-09-24T06:53:04;8.10;99.90
24017;DHT22;12222;50.090;19.702;2022-09-24T06:58:17;8.40;99.90
24017;DHT22;12222;50.090;19.702;2022-09-24T07:03:23;8.50;99.90
24017;DHT22;12222;50.090;19.702;2022-09-24T07:08:25;8.30;99.90
24017;DHT22;12222;50.090;19.702;2022-09-24T07:13:27;8.30;99.90
24017;DHT22;12222;50.090;19.702;2022-09-24T07:18:29;8.50;99.90
24017;DHT22;12222;50.090;19.702;2022-09-24T07:23:31;8.80;99.90
24017;DHT22;12222;50.090;19.702;2022-09-24T07:28:32;8.80;99.90
24017;DHT22;12222;50.090;19.702;2022-09-24T07:33:34;9.20;99.90
24017;DHT22;12222;50.090;19.702;2022-09-24T07:38:37;9.60;99.90
24017;DHT22;12222;50.090;19.702;2022-09-24T07:43:39;9.70;99.90
24017;DHT22;12222;50.090;19.702;2022-09-24T07:48:41;9.90;99.90
24017;DHT22;12222;50.090;19.702;2022-09-24T07:53:43;10.40;99.90
24017;DHT22;12222;50.090;19.702;2022-09-24T07:58:52;10.90;99.90
24017;DHT22;12222;50.090;19.702;2022-09-24T08:03:54;11.40;99.90
24017;DHT22;12222;50.090;19.702;2022-09-24T08:08:56;11.40;99.90
24017;DHT22;12222;50.090;19.702;2022-09-24T08:13:58;11.40;99.90
24017;DHT22;12222;50.090;19.702;2022-09-24T08:19:01;11.70;99.90
24017;DHT22;12222;50.090;19.702;2022-09-24T08:24:03;12.10;99.90
24017;DHT22;12222;50.090;19.702;2022-09-24T08:29:05;12.20;99.90
24017;DHT22;12222;50.090;19.702;2022-09-24T08:34:07;11.70;99.90
24017;DHT22;12222;50.090;19.702;2022-09-24T08:39:09;11.90;99.90
24017;DHT22;12222;50.090;19.702;2022-09-24T08:44:26;11.80;99.90
24017;DHT22;12222;50.090;19.702;2022-09-24T08:50:04;11.50;99.90
24017;DHT22;12222;50.090;19.702;2022-09-24T09:00:40;11.70;99.90
24017;DHT22;12222;50.090;19.702;2022-09-24T09:05:55;11.50;99.90
24017;DHT22;12222;50.090;19.702;2022-09-24T09:11:02;12.00;99.90
24017;DHT22;12222;50.090;19.702;2022-09-24T09:16:15;12.40;99.90
24017;DHT22;12222;50.090;19.702;2022-09-24T09:21:30;13.00;99.90
24017;DHT22;12222;50.090;19.702;2022-09-24T09:26:34;13.20;99.90
24017;DHT22;12222;50.090;19.702;2022-09-24T09:47:52;14.20;99.90
24017;DHT22;12222;50.090;19.702;2022-09-24T09:52:55;13.70;99.90
24017;DHT22;12222;50.090;19.702;2022-09-24T09:58:16;14.40;99.90
24017;DHT22;12222;50.090;19.702;2022-09-24T10:08:50;14.80;99.90
24017;DHT22;12222;50.090;19.702;2022-09-24T10:14:09;15.10;99.90
24017;DHT22;12222;50.090;19.702;2022-09-24T10:19:19;14.30;99.90
24017;DHT22;12222;50.090;19.702;2022-09-24T10:24:26;14.70;99.90
24017;DHT22;12222;50.090;19.702;2022-09-24T10:29:33;15.10;99.90
24017;DHT22;12222;50.090;19.702;2022-09-24T10:34:58;14.40;99.90
24017;DHT22;12222;50.090;19.702;2022-09-24T10:40:07;14.90;99.90
24017;DHT22;12222;50.090;19.702;2022-09-24T10:45:14;14.60;99.90
24017;DHT22;12222;50.090;19.702;2022-09-24T11:14:03;14.40;99.90
24017;DHT22;12222;50.090;19.702;2022-09-24T11:30:08;14.50;99.90
24017;DHT22;12222;50.090;19.702;2022-09-24T11:35:26;14.70;99.90
24017;DHT22;12222;50.090;19.702;2022-09-24T11:51:24;14.50;99.90
24017;DHT22;12222;50.090;19.702;2022-09-24T11:56:46;14.70;99.90
24017;DHT22;12222;50.090;19.702;2022-09-24T12:01:55;15.20;99.90
24017;DHT22;12222;50.090;19.702;2022-09-24T12:07:13;15.00;99.90
24017;DHT22;12222;50.090;19.702;2022-09-24T12:12:35;15.10;99.90
24017;DHT22;12222;50.090;19.702;2022-09-24T12:17:44;16.00;99.90
24017;DHT22;12222;50.090;19.702;2022-09-24T12:23:03;15.80;99.90
24017;DHT22;12222;50.090;19.702;2022-09-24T12:28:12;16.10;99.90
24017;DHT22;12222;50.090;19.702;2022-09-24T12:33:26;15.70;99.90
24017;DHT22;12222;50.090;19.702;2022-09-24T12:38:40;15.50;99.90
24017;DHT22;12222;50.090;19.702;2022-09-24T12:48:49;15.80;99.90
24017;DHT22;12222;50.090;19.702;2022-09-24T12:53:58;16.10;99.90
24017;DHT22;12222;50.090;19.702;2022-09-24T12:59:01;15.40;99.90
24017;DHT22;12222;50.090;19.702;2022-09-24T13:09:38;14.90;99.90
24017;DHT22;12222;50.090;19.702;2022-09-24T13:14:46;14.90;99.90
24017;DHT22;12222;50.090;19.702;2022-09-24T13:19:56;14.80;99.90
24017;DHT22;12222;50.090;19.702;2022-09-24T13:25:19;14.90;99.90
24017;DHT22;12222;50.090;19.702;2022-09-24T13:30:35;15.30;99.90
24017;DHT22;12222;50.090;19.702;2022-09-24T13:35:42;15.70;99.90
24017;DHT22;12222;50.090;19.702;2022-09-24T13:40:55;15.60;99.90
24017;DHT22;12222;50.090;19.702;2022-09-24T13:45:58;15.40;99.90
24017;DHT22;12222;50.090;19.702;2022-09-24T13:51:02;15.20;99.90
24017;DHT22;12222;50.090;19.702;2022-09-24T13:56:14;15.00;99.90
24017;DHT22;12222;50.090;19.702;2022-09-24T14:01:21;15.00;99.90
24017;DHT22;12222;50.090;19.702;2022-09-24T14:06:40;15.20;99.90
24017;DHT22;12222;50.090;19.702;2022-09-24T14:11:50;15.00;99.90
24017;DHT22;12222;50.090;19.702;2022-09-24T14:16:53;15.00;99.90
24017;DHT22;12222;50.090;19.702;2022-09-24T14:21:58;15.00;99.90
24017;DHT22;12222;50.090;19.702;2022-09-24T14:27:09;15.10;99.90
24017;DHT22;12222;50.090;19.702;2022-09-24T14:32:26;14.80;99.90
24017;DHT22;12222;50.090;19.702;2022-09-24T14:37:32;14.60;99.90
24017;DHT22;12222;50.090;19.702;2022-09-24T14:42:40;14.70;99.90
24017;DHT22;12222;50.090;19.702;2022-09-24T14:47:44;14.90;99.90
24017;DHT22;12222;50.090;19.702;2022-09-24T14:52:53;15.00;99.90
24017;DHT22;12222;50.090;19.702;2022-09-24T14:57:57;14.80;99.90
24017;DHT22;12222;50.090;19.702;2022-09-24T15:03:05;14.60;99.90
24017;DHT22;12222;50.090;19.702;2022-09-24T15:08:18;14.80;99.90
24017;DHT22;12222;50.090;19.702;2022-09-24T15:13:34;14.60;99.90
24017;DHT22;12222;50.090;19.702;2022-09-24T15:18:36;14.20;99.90
24017;DHT22;12222;50.090;19.702;2022-09-24T15:23:38;14.30;99.90
24017;DHT22;12222;50.090;19.702;2022-09-24T15:28:40;14.30;99.90
24017;DHT22;12222;50.090;19.702;2022-09-24T15:33:42;14.20;99.90
24017;DHT22;12222;50.090;19.702;2022-09-24T15:38:44;13.90;99.90
24017;DHT22;12222;50.090;19.702;2022-09-24T15:43:46;13.80;99.90
24017;DHT22;12222;50.090;19.702;2022-09-24T15:48:48;13.70;99.90
24017;DHT22;12222;50.090;19.702;2022-09-24T15:53:50;13.50;99.90
24017;DHT22;12222;50.090;19.702;2022-09-24T15:58:52;13.30;99.90
24017;DHT22;12222;50.090;19.702;2022-09-24T16:03:54;13.10;99.90
24017;DHT22;12222;50.090;19.702;2022-09-24T16:08:57;12.80;99.90
24017;DHT22;12222;50.090;19.702;2022-09-24T16:13:59;12.20;99.90
24017;DHT22;12222;50.090;19.702;2022-09-24T16:19:01;12.00;99.90
24017;DHT22;12222;50.090;19.702;2022-09-24T16:24:03;11.60;99.90
24017;DHT22;12222;50.090;19.702;2022-09-24T16:29:05;11.50;99.90
24017;DHT22;12222;50.090;19.702;2022-09-24T16:34:07;11.40;99.90
24017;DHT22;12222;50.090;19.702;2022-09-24T16:39:09;11.10;99.90
24017;DHT22;12222;50.090;19.702;2022-09-24T16:44:12;10.60;99.90
24017;DHT22;12222;50.090;19.702;2022-09-24T16:49:16;10.60;99.90
24017;DHT22;12222;50.090;19.702;2022-09-24T16:54:18;10.50;99.90
24017;DHT22;12222;50.090;19.702;2022-09-24T16:59:20;10.40;99.90
24017;DHT22;12222;50.090;19.702;2022-09-24T17:04:22;10.40;99.90
24017;DHT22;12222;50.090;19.702;2022-09-24T17:09:24;10.30;99.90
24017;DHT22;12222;50.090;19.702;2022-09-24T17:14:44;10.20;99.90
24017;DHT22;12222;50.090;19.702;2022-09-24T17:19:46;10.00;99.90
24017;DHT22;12222;50.090;19.702;2022-09-24T17:24:48;9.60;99.90
24017;DHT22;12222;50.090;19.702;2022-09-24T17:29:50;9.50;99.90
24017;DHT22;12222;50.090;19.702;2022-09-24T17:34:52;9.40;99.90
24017;DHT22;12222;50.090;19.702;2022-09-24T17:39:54;9.20;99.90
24017;DHT22;12222;50.090;19.702;2022-09-24T17:44:57;9.10;99.90
24017;DHT22;12222;50.090;19.702;2022-09-24T17:49:59;9.10;99.90
24017;DHT22;12222;50.090;19.702;2022-09-24T17:55:01;9.10;99.90
24017;DHT22;12222;50.090;19.702;2022-09-24T18:00:04;9.00;99.90
24017;DHT22;12222;50.090;19.702;2022-09-24T18:05:12;8.90;99.90
24017;DHT22;12222;50.090;19.702;2022-09-24T18:10:14;8.80;99.90
24017;DHT22;12222;50.090;19.702;2022-09-24T18:15:18;8.70;99.90
24017;DHT22;12222;50.090;19.702;2022-09-24T18:20:21;8.60;99.90
24017;DHT22;12222;50.090;19.702;2022-09-24T18:25:22;8.50;99.90
24017;DHT22;12222;50.090;19.702;2022-09-24T18:30:24;8.40;99.90
24017;DHT22;12222;50.090;19.702;2022-09-24T18:35:26;8.20;99.90
24017;DHT22;12222;50.090;19.702;2022-09-24T18:40:28;8.10;99.90
24017;DHT22;12222;50.090;19.702;2022-09-24T18:45:30;8.00;99.90
24017;DHT22;12222;50.090;19.702;2022-09-24T18:50:34;7.90;99.90
24017;DHT22;12222;50.090;19.702;2022-09-24T18:55:40;7.90;99.90
24017;DHT22;12222;50.090;19.702;2022-09-24T19:00:43;7.80;99.90
24017;DHT22;12222;50.090;19.702;2022-09-24T19:05:52;7.80;99.90
24017;DHT22;12222;50.090;19.702;2022-09-24T19:10:54;7.80;99.90
24017;DHT22;12222;50.090;19.702;2022-09-24T19:16:03;7.80;99.90
24017;DHT22;12222;50.090;19.702;2022-09-24T19:21:07;7.70;99.90
24017;DHT22;12222;50.090;19.702;2022-09-24T19:26:11;7.80;99.90
24017;DHT22;12222;50.090;19.702;2022-09-24T19:31:24;7.70;99.90
24017;DHT22;12222;50.090;19.702;2022-09-24T19:36:26;7.80;99.90
24017;DHT22;12222;50.090;19.702;2022-09-24T19:41:28;8.00;99.90
24017;DHT22;12222;50.090;19.702;2022-09-24T19:46:30;8.10;99.90
24017;DHT22;12222;50.090;19.702;2022-09-24T19:51:33;8.10;99.90
24017;DHT22;12222;50.090;19.702;2022-09-24T19:56:36;8.00;99.90
24017;DHT22;12222;50.090;19.702;2022-09-24T20:01:38;7.90;99.90
24017;DHT22;12222;50.090;19.702;2022-09-24T20:06:41;7.80;99.90
24017;DHT22;12222;50.090;19.702;2022-09-24T20:11:44;7.80;99.90
24017;DHT22;12222;50.090;19.702;2022-09-24T20:16:47;7.60;99.90
24017;DHT22;12222;50.090;19.702;2022-09-24T20:21:49;7.60;99.90
24017;DHT22;12222;50.090;19.702;2022-09-24T20:26:53;7.50;99.90
24017;DHT22;12222;50.090;19.702;2022-09-24T20:32:14;7.50;99.90
24017;DHT22;12222;50.090;19.702;2022-09-24T20:37:16;7.40;99.90
24017;DHT22;12222;50.090;19.702;2022-09-24T20:42:18;7.30;99.90
24017;DHT22;12222;50.090;19.702;2022-09-24T20:47:21;7.30;99.90
24017;DHT22;12222;50.090;19.702;2022-09-24T20:52:22;7.30;99.90
24017;DHT22;12222;50.090;19.702;2022-09-24T20:57:25;7.20;99.90
24017;DHT22;12222;50.090;19.702;2022-09-24T21:02:27;7.10;99.90
24017;DHT22;12222;50.090;19.702;2022-09-24T21:07:30;7.10;99.90
24017;DHT22;12222;50.090;19.702;2022-09-24T21:12:31;6.90;99.90
24017;DHT22;12222;50.090;19.702;2022-09-24T21:17:34;6.90;99.90
24017;DHT22;12222;50.090;19.702;2022-09-24T21:22:36;6.90;99.90
24017;DHT22;12222;50.090;19.702;2022-09-24T21:27:39;6.80;99.90
24017;DHT22;12222;50.090;19.702;2022-09-24T21:32:42;6.80;99.90
24017;DHT22;12222;50.090;19.702;2022-09-24T21:37:46;6.80;99.90
24017;DHT22;12222;50.090;19.702;2022-09-24T21:42:49;6.70;99.90
24017;DHT22;12222;50.090;19.702;2022-09-24T21:47:52;6.80;99.90
24017;DHT22;12222;50.090;19.702;2022-09-24T21:52:55;6.80;99.90
24017;DHT22;12222;50.090;19.702;2022-09-24T21:57:57;6.60;99.90
24017;DHT22;12222;50.090;19.702;2022-09-24T22:02:59;6.60;99.90
24017;DHT22;12222;50.090;19.702;2022-09-24T22:08:01;6.60;99.90
24017;DHT22;12222;50.090;19.702;2022-09-24T22:13:04;6.50;99.90
24017;DHT22;12222;50.090;19.702;2022-09-24T22:18:06;6.50;99.90
24017;DHT22;12222;50.090;19.702;2022-09-24T22:23:11;6.50;99.90
24017;DHT22;12222;50.090;19.702;2022-09-24T22:28:13;6.50;99.90
24017;DHT22;12222;50.090;19.702;2022-09-24T22:33:22;6.50;99.90
24017;DHT22;12222;50.090;19.702;2022-09-24T22:38:42;6.50;99.90
24017;DHT22;12222;50.090;19.702;2022-09-24T22:43:44;6.60;99.90
24017;DHT22;12222;50.090;19.702;2022-09-24T22:48:46;6.60;99.90
24017;DHT22;12222;50.090;19.702;2022-09-24T22:53:48;6.60;99.90
24017;DHT22;12222;50.090;19.702;2022-09-24T22:58:56;6.60;99.90
24017;DHT22;12222;50.090;19.702;2022-09-24T23:03:58;6.70;99.90
24017;DHT22;12222;50.090;19.702;2022-09-24T23:09:01;6.70;99.90
24017;DHT22;12222;50.090;19.702;2022-09-24T23:14:14;6.80;99.90
24017;DHT22;12222;50.090;19.702;2022-09-24T23:19:18;6.80;99.90
24017;DHT22;12222;50.090;19.702;2022-09-24T23:24:20;6.70;99.90
24017;DHT22;12222;50.090;19.702;2022-09-24T23:29:22;6.70;99.90
24017;DHT22;12222;50.090;19.702;2022-09-24T23:34:25;6.60;99.90
24017;DHT22;12222;50.090;19.702;2022-09-24T23:39:27;6.60;99.90
24017;DHT22;12222;50.090;19.702;2022-09-24T23:44:29;6.30;99.90
24017;DHT22;12222;50.090;19.702;2022-09-24T23:49:30;6.40;99.90
24017;DHT22;12222;50.090;19.702;2022-09-24T23:54:32;6.40;99.90
24017;DHT22;12222;50.090;19.702;2022-09-24T23:59:39;6.30;99.90
